Map

Track Data

SID SEASON NUMBER BASIN SUBBASIN NAME ISO_TIME NATURE LAT LON WMO_WIND WMO_PRES WMO_AGENCY TRACK_TYPE DIST2LAND LANDFALL IFLAG USA_AGENCY USA_ATCF_ID USA_LAT USA_LON USA_RECORD USA_STATUS USA_WIND USA_PRES USA_SSHS USA_R34_NE USA_R34_SE USA_R34_SW USA_R34_NW USA_R50_NE USA_R50_SE USA_R50_SW USA_R50_NW USA_R64_NE USA_R64_SE USA_R64_SW USA_R64_NW USA_POCI USA_ROCI USA_RMW USA_EYE TOKYO_LAT TOKYO_LON TOKYO_GRADE TOKYO_WIND TOKYO_PRES TOKYO_R50_DIR TOKYO_R50_LONG TOKYO_R50_SHORT TOKYO_R30_DIR TOKYO_R30_LONG TOKYO_R30_SHORT TOKYO_LAND CMA_LAT CMA_LON CMA_CAT CMA_WIND CMA_PRES HKO_LAT HKO_LON HKO_CAT HKO_WIND HKO_PRES NEWDELHI_LAT NEWDELHI_LON NEWDELHI_GRADE NEWDELHI_WIND NEWDELHI_PRES NEWDELHI_CI NEWDELHI_DP NEWDELHI_POCI REUNION_LAT REUNION_LON REUNION_TYPE REUNION_WIND REUNION_PRES REUNION_TNUM REUNION_CI REUNION_RMW REUNION_R34_NE REUNION_R34_SE REUNION_R34_SW REUNION_R34_NW REUNION_R50_NE REUNION_R50_SE REUNION_R50_SW REUNION_R50_NW REUNION_R64_NE REUNION_R64_SE REUNION_R64_SW REUNION_R64_NW BOM_LAT BOM_LON BOM_TYPE BOM_WIND BOM_PRES BOM_TNUM BOM_CI BOM_RMW BOM_R34_NE BOM_R34_SE BOM_R34_SW BOM_R34_NW BOM_R50_NE BOM_R50_SE BOM_R50_SW BOM_R50_NW BOM_R64_NE BOM_R64_SE BOM_R64_SW BOM_R64_NW BOM_ROCI BOM_POCI BOM_EYE BOM_POS_METHOD BOM_PRES_METHOD NADI_LAT NADI_LON NADI_CAT NADI_WIND NADI_PRES WELLINGTON_LAT WELLINGTON_LON WELLINGTON_WIND WELLINGTON_PRES DS824_LAT DS824_LON DS824_STAGE DS824_WIND DS824_PRES TD9636_LAT TD9636_LON TD9636_STAGE TD9636_WIND TD9636_PRES TD9635_LAT TD9635_LON TD9635_WIND TD9635_PRES TD9635_ROCI NEUMANN_LAT NEUMANN_LON NEUMANN_CLASS NEUMANN_WIND NEUMANN_PRES MLC_LAT MLC_LON MLC_CLASS MLC_WIND MLC_PRES USA_GUST BOM_GUST BOM_GUST_PER REUNION_GUST REUNION_GUST_PER USA_SEAHGT USA_SEARAD_NE USA_SEARAD_SE USA_SEARAD_SW USA_SEARAD_NW STORM_SPEED STORM_DIR
1903032S11058 1903 10 SI MM NOT_NAMED 1903-02-01 06:00:00 NR -11.0000 57.6000 reunion main 867 867 _____O________ -1 -11.0000 57.6000 99 9.90000 1 243
1903032S11058 1903 10 SI MM NOT_NAMED 1903-02-01 09:00:00 NR -11.0177 57.5554 main 867 856 _____P________ -1 -11.0177 57.5554 99 1 247
1903032S11058 1903 10 SI MM NOT_NAMED 1903-02-01 12:00:00 NR -11.0385 57.5056 main 856 843 _____P________ -1 -11.0385 57.5056 99 1 245
1903032S11058 1903 10 SI MM NOT_NAMED 1903-02-01 15:00:00 NR -11.0655 57.4452 main 843 843 _____P________ -1 -11.0655 57.4452 99 1 245
1903032S11058 1903 10 SI MM NOT_NAMED 1903-02-01 18:00:00 NR -11.1017 57.3690 main 843 832 _____P________ -1 -11.1017 57.3690 99 2 244
1903032S11058 1903 10 SI MM NOT_NAMED 1903-02-01 21:00:00 NR -11.1502 57.2716 main 829 819 _____P________ -1 -11.1502 57.2716 99 2 243
1903032S11058 1903 10 SI MM NOT_NAMED 1903-02-02 00:00:00 NR -11.2140 57.1479 main 808 795 _____P________ -1 -11.2140 57.1479 99 3 242
1903032S11058 1903 10 SI MM NOT_NAMED 1903-02-02 03:00:00 NR -11.2963 56.9925 main 795 771 _____P________ -1 -11.2963 56.9925 99 4 241
1903032S11058 1903 10 SI MM NOT_NAMED 1903-02-02 06:00:00 NR -11.4000 56.8000 reunion main 771 747 _____O________ -1 -11.4000 56.8000 99 9.90000 5 241
1903032S11058 1903 10 SI MM NOT_NAMED 1903-02-02 09:00:00 NR -11.5268 56.5674 main 747 710 _____P________ -1 -11.5268 56.5674 99 6 241
1903032S11058 1903 10 SI MM NOT_NAMED 1903-02-02 12:00:00 NR -11.6734 56.3012 main 710 675 _____P________ -1 -11.6734 56.3012 99 6 241
1903032S11058 1903 10 SI MM NOT_NAMED 1903-02-02 15:00:00 NR -11.8347 56.0104 main 675 638 _____P________ -1 -11.8347 56.0104 99 7 240
1903032S11058 1903 10 SI MM NOT_NAMED 1903-02-02 18:00:00 NR -12.0063 55.7038 main 638 601 _____P________ -1 -12.0063 55.7038 99 7 240
1903032S11058 1903 10 SI MM NOT_NAMED 1903-02-02 21:00:00 NR -12.1832 55.3904 main 601 564 _____P________ -1 -12.1832 55.3904 99 7 240
1903032S11058 1903 10 SI MM NOT_NAMED 1903-02-03 00:00:00 NR -12.3609 55.0793 main 564 529 _____P________ -1 -12.3609 55.0793 99 7 240
1903032S11058 1903 10 SI MM NOT_NAMED 1903-02-03 03:00:00 NR -12.5347 54.7795 main 529 492 _____P________ -1 -12.5347 54.7795 99 7 239
1903032S11058 1903 10 SI MM NOT_NAMED 1903-02-03 06:00:00 NR -12.7000 54.5000 reunion main 492 468 _____O________ -1 -12.7000 54.5000 99 9.90000 6 240
1903032S11058 1903 10 SI MM NOT_NAMED 1903-02-03 09:00:00 NR -12.8272 54.2634 main 468 444 _____P________ -1 -12.8272 54.2634 99 5 241
1903032S11058 1903 10 SI MM NOT_NAMED 1903-02-03 12:00:00 NR -12.9467 54.0425 main 434 407 _____P________ -1 -12.9467 54.0425 99 5 241
1903032S11058 1903 10 SI MM NOT_NAMED 1903-02-03 15:00:00 NR -13.0622 53.8363 main 407 395 _____P________ -1 -13.0622 53.8363 99 5 239
1903032S11058 1903 10 SI MM NOT_NAMED 1903-02-03 18:00:00 NR -13.1770 53.6442 main 384 371 _____P________ -1 -13.1770 53.6442 99 4 237
1903032S11058 1903 10 SI MM NOT_NAMED 1903-02-03 21:00:00 NR -13.2947 53.4653 main 371 348 _____P________ -1 -13.2947 53.4653 99 4 234
1903032S11058 1903 10 SI MM NOT_NAMED 1903-02-04 00:00:00 NR -13.4188 53.2988 main 348 336 _____P________ -1 -13.4188 53.2988 99 4 230
1903032S11058 1903 10 SI MM NOT_NAMED 1903-02-04 03:00:00 NR -13.5527 53.1440 main 325 313 _____P________ -1 -13.5527 53.1440 99 4 226
1903032S11058 1903 10 SI MM NOT_NAMED 1903-02-04 06:00:00 NR -13.7000 53.0000 reunion main 313 287 _____O________ -1 -13.7000 53.0000 99 9.90000 5 226
1903032S11058 1903 10 SI MM NOT_NAMED 1903-02-04 09:00:00 NR -13.8682 52.8104 main 287 262 _____P________ -1 -13.8682 52.8104 99 5 226
1903032S11058 1903 10 SI MM NOT_NAMED 1903-02-04 12:00:00 NR -14.0485 52.6275 main 262 242 _____P________ -1 -14.0485 52.6275 99 5 222
1903032S11058 1903 10 SI MM NOT_NAMED 1903-02-04 15:00:00 NR -14.2395 52.4588 main 242 213 _____P________ -1 -14.2395 52.4588 99 5 218
1903032S11058 1903 10 SI MM NOT_NAMED 1903-02-04 18:00:00 NR -14.4396 52.3120 main 213 194 _____P________ -1 -14.4396 52.3120 99 5 212
1903032S11058 1903 10 SI MM NOT_NAMED 1903-02-04 21:00:00 NR -14.6472 52.1950 main 194 177 _____P________ -1 -14.6472 52.1950 99 5 204
1903032S11058 1903 10 SI MM NOT_NAMED 1903-02-05 00:00:00 NR -14.8608 52.1154 main 175 172 _____P________ -1 -14.8608 52.1154 99 4 194
1903032S11058 1903 10 SI MM NOT_NAMED 1903-02-05 03:00:00 NR -15.0789 52.0811 main 172 171 _____P________ -1 -15.0789 52.0811 99 4 0
1903032S11058 1903 10 SI MM NOT_NAMED 1903-02-05 06:00:00 NR -15.3000 52.1000 reunion main 171 171 _____O________ -1 -15.3000 52.1000 99 9.90000 5 170
1903032S11058 1903 10 SI MM NOT_NAMED 1903-02-05 09:00:00 NR -15.5229 52.1607 main 182 182 _____P________ -1 -15.5229 52.1607 99 5 160
1903032S11058 1903 10 SI MM NOT_NAMED 1903-02-05 12:00:00 NR -15.7511 52.2726 main 197 197 _____P________ -1 -15.7511 52.2726 99 5 150
1903032S11058 1903 10 SI MM NOT_NAMED 1903-02-05 15:00:00 NR -15.9821 52.4319 main 214 214 _____P________ -1 -15.9821 52.4319 99 6 143
1903032S11058 1903 10 SI MM NOT_NAMED 1903-02-05 18:00:00 NR -16.2137 52.6346 main 241 241 _____P________ -1 -16.2137 52.6346 99 6 137
1903032S11058 1903 10 SI MM NOT_NAMED 1903-02-05 21:00:00 NR -16.4436 52.8768 main 280 280 _____P________ -1 -16.4436 52.8768 99 7 132
1903032S11058 1903 10 SI MM NOT_NAMED 1903-02-06 00:00:00 NR -16.6695 53.1544 main 323 323 _____P________ -1 -16.6695 53.1544 99 7 128
1903032S11058 1903 10 SI MM NOT_NAMED 1903-02-06 03:00:00 NR -16.8891 53.4635 main 361 361 _____P________ -1 -16.8891 53.4635 99 8 125
1903032S11058 1903 10 SI MM NOT_NAMED 1903-02-06 06:00:00 NR -17.1000 53.8000 reunion main 399 399 _____O________ -1 -17.1000 53.8000 99 9.90000 8 122
1903032S11058 1903 10 SI MM NOT_NAMED 1903-02-06 09:00:00 NR -17.3081 54.1604 main 429 400 _____P________ -1 -17.3081 54.1604 99 8 120
1903032S11058 1903 10 SI MM NOT_NAMED 1903-02-06 12:00:00 NR -17.5093 54.5574 main 398 370 _____P________ -1 -17.5093 54.5574 99 9 117
1903032S11058 1903 10 SI MM NOT_NAMED 1903-02-06 15:00:00 NR -17.7022 54.9803 main 370 330 _____P________ -1 -17.7022 54.9803 99 9 115
1903032S11058 1903 10 SI MM NOT_NAMED 1903-02-06 18:00:00 NR -17.8856 55.4182 main 330 295 _____P________ -1 -17.8856 55.4182 99 9 113
1903032S11058 1903 10 SI MM NOT_NAMED 1903-02-06 21:00:00 NR -18.0581 55.8601 main 279 247 _____P________ -1 -18.0581 55.8601 99 9 112
1903032S11058 1903 10 SI MM NOT_NAMED 1903-02-07 00:00:00 NR -18.2187 56.2951 main 247 207 _____P________ -1 -18.2187 56.2951 99 9 111
1903032S11058 1903 10 SI MM NOT_NAMED 1903-02-07 03:00:00 NR -18.3663 56.7121 main 207 183 _____P________ -1 -18.3663 56.7121 99 8 110
1903032S11058 1903 10 SI MM NOT_NAMED 1903-02-07 06:00:00 NR -18.5000 57.1000 reunion main 183 168 _____O________ -1 -18.5000 57.1000 99 9.90000 7 111
1903032S11058 1903 10 SI MM NOT_NAMED 1903-02-07 09:00:00 NR -18.6168 57.4136 main 168 156 _____P________ -1 -18.6168 57.4136 99 6 111
1903032S11058 1903 10 SI MM NOT_NAMED 1903-02-07 12:00:00 NR -18.7190 57.7009 main 156 145 _____P________ -1 -18.7190 57.7009 99 6 110
1903032S11058 1903 10 SI MM NOT_NAMED 1903-02-07 15:00:00 NR -18.8098 57.9677 main 148 140 _____P________ -1 -18.8098 57.9677 99 5 109
1903032S11058 1903 10 SI MM NOT_NAMED 1903-02-07 18:00:00 NR -18.8922 58.2199 main 144 143 _____P________ -1 -18.8922 58.2199 99 5 109
1903032S11058 1903 10 SI MM NOT_NAMED 1903-02-07 21:00:00 NR -18.9693 58.4633 main 148 148 _____P________ -1 -18.9693 58.4633 99 5 108
1903032S11058 1903 10 SI MM NOT_NAMED 1903-02-08 00:00:00 NR -19.0443 58.7038 main 161 153 _____P________ -1 -19.0443 58.7038 99 5 108
1903032S11058 1903 10 SI MM NOT_NAMED 1903-02-08 03:00:00 NR -19.1202 58.9474 main 168 168 _____P________ -1 -19.1202 58.9474 99 5 108
1903032S11058 1903 10 SI MM NOT_NAMED 1903-02-08 06:00:00 NR -19.2000 59.2000 reunion main 186 186 _____O________ -1 -19.2000 59.2000 99 9.90000 5 109
1903032S11058 1903 10 SI MM NOT_NAMED 1903-02-08 09:00:00 NR -19.2860 59.4664 main 208 208 _____P________ -1 -19.2860 59.4664 99 5 109
1903032S11058 1903 10 SI MM NOT_NAMED 1903-02-08 12:00:00 NR -19.3779 59.7460 main 222 222 _____P________ -1 -19.3779 59.7460 99 6 109
1903032S11058 1903 10 SI MM NOT_NAMED 1903-02-08 15:00:00 NR -19.4747 60.0370 main 246 246 _____P________ -1 -19.4747 60.0370 99 6 109
1903032S11058 1903 10 SI MM NOT_NAMED 1903-02-08 18:00:00 NR -19.5755 60.3377 main 272 272 _____P________ -1 -19.5755 60.3377 99 6 110
1903032S11058 1903 10 SI MM NOT_NAMED 1903-02-08 21:00:00 NR -19.6793 60.6462 main 300 300 _____P________ -1 -19.6793 60.6462 99 6 110
1903032S11058 1903 10 SI MM NOT_NAMED 1903-02-09 00:00:00 NR -19.7853 60.9606 main 338 338 _____P________ -1 -19.7853 60.9606 99 6 110
1903032S11058 1903 10 SI MM NOT_NAMED 1903-02-09 03:00:00 NR -19.8925 61.2792 main 368 368 _____P________ -1 -19.8925 61.2792 99 6 110
1903032S11058 1903 10 SI MM NOT_NAMED 1903-02-09 06:00:00 NR -20.0000 61.6000 reunion main 398 _____O________ -1 -20.0000 61.6000 99 9.90000 6 110

About IBTrACS Database

This database is a web-friendly format of International Best Track Archive for Climate Stewardship (IBTrACS), a global best track data archive curated by NOAA dating back to 1842.

Updated: 2021-12-06